Time;durP1;ratioP1;P1;durP2;ratioP2;P2;SDS_P1;SDS_P2;PMS_P1;PMS_P2;Temp;Humidity;BMP_temperature;BMP_pressure;BME280_temperature;BME280_humidity;BME280_pressure;Samples;Min_cycle;Max_cycle;Signal;HPM_P1;HPM_P2
2024/02/25 00:00:54;;;;;;;6.57;3.07;;;5.60;99.90;;;;;;4185893;28;20447;-78
2024/02/25 00:02:56;;;;;;;4.63;2.83;;;5.50;99.90;;;;;;4188857;28;20472;-78
2024/02/25 00:04:58;;;;;;;3.83;2.43;;;5.50;99.90;;;;;;4182405;28;20316;-78
2024/02/25 00:07:00;;;;;;;5.10;2.63;;;5.50;99.90;;;;;;4185957;28;20447;-78
2024/02/25 00:09:05;;;;;;;4.23;2.57;;;5.50;99.90;;;;;;4190275;28;20465;-78
2024/02/25 00:11:06;;;;;;;6.30;3.17;;;5.40;99.90;;;;;;4181248;28;20874;-78
2024/02/25 00:13:08;;;;;;;3.97;2.40;;;5.40;99.90;;;;;;4187090;28;20455;-79
2024/02/25 00:15:10;;;;;;;4.73;2.63;;;5.40;99.90;;;;;;4186375;28;20312;-78
2024/02/25 00:17:12;;;;;;;5.47;2.40;;;5.40;99.90;;;;;;4180853;28;20968;-79
2024/02/25 00:19:13;;;;;;;4.90;2.60;;;5.30;99.90;;;;;;4188294;28;20856;-78
2024/02/25 00:21:15;;;;;;;5.97;2.57;;;5.30;99.90;;;;;;4187419;28;20440;-78
2024/02/25 00:23:17;;;;;;;8.37;2.90;;;5.30;99.90;;;;;;4188533;28;20246;-78
2024/02/25 00:25:26;;;;;;;4.37;2.50;;;5.30;99.90;;;;;;4184574;28;20584;-78
2024/02/25 00:27:32;;;;;;;5.60;2.20;;;5.20;99.90;;;;;;4187315;28;21142;-78
2024/02/25 00:29:34;;;;;;;5.07;2.60;;;5.20;99.90;;;;;;4183844;28;20467;-78
2024/02/25 00:31:36;;;;;;;4.47;2.60;;;5.20;99.90;;;;;;4184937;28;20521;-78
2024/02/25 00:33:38;;;;;;;5.30;2.53;;;5.10;99.90;;;;;;4188018;28;20919;-78
2024/02/25 00:35:40;;;;;;;5.60;2.60;;;5.20;99.90;;;;;;4186345;28;20489;-78
2024/02/25 00:37:42;;;;;;;4.23;2.47;;;5.10;99.90;;;;;;4188981;28;20977;-78
2024/02/25 00:39:44;;;;;;;4.53;2.63;;;5.00;99.90;;;;;;4186130;28;20446;-78
2024/02/25 00:41:51;;;;;;;3.43;2.10;;;5.00;99.90;;;;;;4187806;28;20819;-78
2024/02/25 00:43:53;;;;;;;5.17;2.63;;;5.00;99.90;;;;;;4185270;28;20544;-78
2024/02/25 00:45:54;;;;;;;3.30;2.17;;;5.00;99.90;;;;;;4183632;28;20467;-78
2024/02/25 00:47:58;;;;;;;5.83;2.87;;;5.00;99.90;;;;;;4188084;28;20871;-78
2024/02/25 00:50:00;;;;;;;3.63;2.20;;;5.00;99.90;;;;;;4189158;28;20242;-77
2024/02/25 00:52:02;;;;;;;4.73;2.40;;;5.00;99.90;;;;;;4191308;28;20442;-79
2024/02/25 00:54:05;;;;;;;5.53;1.93;;;4.90;99.90;;;;;;4189895;28;20483;-78
2024/02/25 00:56:07;;;;;;;4.13;2.43;;;4.90;99.90;;;;;;4192000;28;20993;-78
2024/02/25 00:58:11;;;;;;;5.30;2.00;;;4.90;99.90;;;;;;4191029;28;20463;-78
2024/02/25 01:00:13;;;;;;;4.10;1.90;;;4.90;99.90;;;;;;4187564;28;20587;-79
2024/02/25 01:02:15;;;;;;;6.67;2.37;;;4.90;99.90;;;;;;4187376;28;20901;-79
2024/02/25 01:04:19;;;;;;;5.90;2.17;;;4.90;99.90;;;;;;4191599;28;21046;-77
2024/02/25 01:06:20;;;;;;;5.30;2.10;;;4.90;99.90;;;;;;4186513;28;20943;-77
2024/02/25 01:08:25;;;;;;;4.20;2.03;;;4.90;99.90;;;;;;4186316;28;20448;-77
2024/02/25 01:10:27;;;;;;;2.50;1.80;;;4.90;99.90;;;;;;4187395;28;20455;-77
2024/02/25 01:12:29;;;;;;;2.73;1.80;;;4.90;99.90;;;;;;4191999;28;20480;-78
2024/02/25 01:14:33;;;;;;;3.87;2.07;;;4.80;99.90;;;;;;4192093;28;20912;-78
2024/02/25 01:16:38;;;;;;;4.60;1.90;;;4.80;99.90;;;;;;4194679;28;20905;-78
2024/02/25 01:18:40;;;;;;;2.47;1.57;;;4.80;99.90;;;;;;4197994;28;20465;-78
2024/02/25 01:20:42;;;;;;;3.77;1.80;;;5.10;99.90;;;;;;4202781;28;20443;-78
2024/02/25 01:22:44;;;;;;;4.80;1.83;;;4.70;99.90;;;;;;4191606;28;20263;-79
2024/02/25 01:24:47;;;;;;;4.17;1.73;;;4.70;99.90;;;;;;4194043;28;20486;-77
2024/02/25 01:26:49;;;;;;;3.00;1.70;;;4.70;99.90;;;;;;4187698;28;20939;-78
2024/02/25 01:28:50;;;;;;;3.87;1.70;;;4.60;99.90;;;;;;4186698;28;20456;-76
2024/02/25 01:30:54;;;;;;;2.40;1.57;;;4.60;99.90;;;;;;4187333;28;21059;-77
2024/02/25 01:32:56;;;;;;;3.53;1.53;;;4.60;99.90;;;;;;4190685;28;21233;-76
2024/02/25 01:34:58;;;;;;;2.40;1.53;;;4.60;99.90;;;;;;4184641;28;20464;-76
2024/02/25 01:37:00;;;;;;;2.07;1.57;;;4.50;99.90;;;;;;4188437;28;20841;-77
2024/02/25 01:39:03;;;;;;;2.13;1.50;;;4.50;99.90;;;;;;4186505;28;20463;-76
2024/02/25 01:41:05;;;;;;;2.87;1.70;;;4.50;99.90;;;;;;4191337;28;20911;-78
2024/02/25 01:43:11;;;;;;;2.77;1.47;;;4.30;99.90;;;;;;4189102;28;20538;-76
2024/02/25 01:45:14;;;;;;;3.37;1.73;;;4.50;99.90;;;;;;4187054;28;20591;-77
2024/02/25 01:47:18;;;;;;;2.40;1.37;;;4.50;99.90;;;;;;4187275;28;20453;-76
2024/02/25 01:49:20;;;;;;;2.73;1.40;;;4.60;99.90;;;;;;4178995;28;20458;-77
2024/02/25 01:51:23;;;;;;;2.47;1.13;;;4.40;99.90;;;;;;4187830;28;20462;-78
2024/02/25 01:53:26;;;;;;;3.03;1.50;;;4.40;99.90;;;;;;4185349;28;20458;-78
2024/02/25 01:55:32;;;;;;;1.63;1.20;;;4.40;99.90;;;;;;4187787;28;20467;-78
2024/02/25 01:57:34;;;;;;;2.13;1.37;;;4.30;99.90;;;;;;4188691;28;20493;-78
2024/02/25 01:59:39;;;;;;;3.23;1.33;;;4.30;99.90;;;;;;4182388;28;20439;-78
2024/02/25 02:01:41;;;;;;;1.97;1.30;;;4.30;99.90;;;;;;4190441;28;20456;-78
2024/02/25 02:03:44;;;;;;;3.10;1.40;;;4.20;99.90;;;;;;4187897;28;20486;-78
2024/02/25 02:05:46;;;;;;;2.40;1.20;;;4.30;99.90;;;;;;4191589;28;20457;-78
2024/02/25 02:07:49;;;;;;;2.33;1.30;;;4.30;99.90;;;;;;4185489;28;20447;-78
2024/02/25 02:09:51;;;;;;;3.10;1.50;;;4.20;99.90;;;;;;4189396;28;20486;-77
2024/02/25 02:11:57;;;;;;;2.13;1.33;;;4.20;99.90;;;;;;4182842;28;20462;-78
2024/02/25 02:13:59;;;;;;;1.40;1.20;;;4.20;99.90;;;;;;4181955;28;20559;-78
2024/02/25 02:16:01;;;;;;;3.90;1.30;;;4.10;99.90;;;;;;4187343;28;20457;-78
2024/02/25 02:18:06;;;;;;;1.33;1.10;;;4.00;99.90;;;;;;4186625;28;20442;-78
2024/02/25 02:20:17;;;;;;;1.60;0.90;;;4.00;99.90;;;;;;4189243;28;20439;-78
2024/02/25 02:22:24;;;;;;;6.20;1.20;;;4.00;99.90;;;;;;4185251;28;20452;-78
2024/02/25 02:24:27;;;;;;;1.17;0.87;;;4.00;99.90;;;;;;4189317;28;20500;-78
2024/02/25 02:26:29;;;;;;;4.13;1.20;;;4.00;99.90;;;;;;4184667;28;20878;-78
2024/02/25 02:28:34;;;;;;;1.47;0.90;;;4.00;99.90;;;;;;4189352;28;20515;-77
2024/02/25 02:30:38;;;;;;;2.20;1.00;;;3.90;99.90;;;;;;4192645;28;20457;-79
2024/02/25 02:32:41;;;;;;;3.53;0.90;;;4.00;99.90;;;;;;4187443;28;20481;-77
2024/02/25 02:34:46;;;;;;;1.90;1.07;;;3.90;99.90;;;;;;4180234;28;20509;-77
2024/02/25 02:36:49;;;;;;;1.20;0.90;;;3.90;99.90;;;;;;4185495;28;20489;-78
2024/02/25 02:38:53;;;;;;;2.03;0.90;;;3.80;99.90;;;;;;4186009;28;20582;-77
2024/02/25 02:40:55;;;;;;;2.03;1.10;;;3.80;99.90;;;;;;4188932;28;20487;-78
2024/02/25 02:42:57;;;;;;;1.47;0.87;;;3.80;99.90;;;;;;4185485;28;20476;-77
2024/02/25 02:45:00;;;;;;;2.07;1.27;;;3.80;99.90;;;;;;4188539;28;20483;-79
2024/02/25 02:47:02;;;;;;;1.83;1.20;;;3.80;99.90;;;;;;4195205;28;20487;-78
2024/02/25 02:49:07;;;;;;;2.07;1.10;;;3.70;99.90;;;;;;4194030;28;20456;-79
2024/02/25 02:51:08;;;;;;;1.93;1.07;;;3.70;99.90;;;;;;4186043;28;20460;-78
2024/02/25 02:53:10;;;;;;;2.57;1.20;;;3.70;99.90;;;;;;4190652;28;20498;-79
2024/02/25 02:55:14;;;;;;;3.17;1.30;;;3.70;99.90;;;;;;4191096;28;20497;-79
2024/02/25 02:57:16;;;;;;;2.90;1.20;;;3.70;99.90;;;;;;4186838;28;20436;-79
2024/02/25 02:59:18;;;;;;;2.53;1.20;;;3.70;99.90;;;;;;4189378;28;20462;-78
2024/02/25 03:01:20;;;;;;;1.70;1.20;;;3.70;99.90;;;;;;4186424;28;20449;-78
2024/02/25 03:03:22;;;;;;;1.30;0.90;;;3.70;99.90;;;;;;4184849;28;20444;-79
2024/02/25 03:05:24;;;;;;;2.07;1.10;;;3.60;99.90;;;;;;4180682;28;20485;-78
2024/02/25 03:07:26;;;;;;;1.40;1.10;;;3.60;99.90;;;;;;4185340;28;21296;-78
2024/02/25 03:09:30;;;;;;;5.30;1.30;;;3.50;99.90;;;;;;4185249;28;20445;-78
2024/02/25 03:11:33;;;;;;;3.07;1.40;;;3.50;99.90;;;;;;4181977;28;20482;-78
2024/02/25 03:13:35;;;;;;;2.33;1.20;;;3.40;99.90;;;;;;4183520;28;20528;-78
2024/02/25 03:15:37;;;;;;;1.20;1.10;;;3.40;99.90;;;;;;4182284;28;20475;-78
2024/02/25 03:17:40;;;;;;;1.80;1.33;;;3.40;99.90;;;;;;4188662;28;20461;-78
2024/02/25 03:19:41;;;;;;;1.97;1.40;;;3.30;99.90;;;;;;4181941;28;21096;-77
2024/02/25 03:21:44;;;;;;;2.53;1.23;;;3.30;99.90;;;;;;4183708;28;20543;-79
2024/02/25 03:23:45;;;;;;;2.20;1.10;;;3.30;99.90;;;;;;4183314;28;20516;-77
2024/02/25 03:25:47;;;;;;;1.80;1.20;;;3.20;99.90;;;;;;4185621;28;20477;-78
2024/02/25 03:27:51;;;;;;;3.07;1.30;;;3.20;99.90;;;;;;4186468;28;20206;-77
2024/02/25 03:29:53;;;;;;;2.80;1.20;;;3.20;99.90;;;;;;4190720;28;20455;-77
2024/02/25 03:31:55;;;;;;;1.97;1.40;;;3.10;99.90;;;;;;4186647;28;20447;-77
2024/02/25 03:33:57;;;;;;;2.80;1.37;;;3.10;99.90;;;;;;4189084;28;20483;-77
2024/02/25 03:35:58;;;;;;;3.30;1.20;;;3.10;99.90;;;;;;4185353;28;20552;-76
2024/02/25 03:38:02;;;;;;;2.70;1.10;;;3.10;99.90;;;;;;4185966;28;20447;-77
2024/02/25 03:40:04;;;;;;;2.47;1.20;;;3.10;99.90;;;;;;4186973;28;20243;-77
2024/02/25 03:42:06;;;;;;;3.57;1.00;;;3.00;99.90;;;;;;4194876;28;20484;-77
2024/02/25 03:44:09;;;;;;;3.60;1.47;;;3.00;99.90;;;;;;4190596;28;20494;-78
2024/02/25 03:46:10;;;;;;;2.80;1.43;;;3.00;99.90;;;;;;4185245;28;20445;-77
2024/02/25 03:48:12;;;;;;;1.33;1.00;;;3.00;99.90;;;;;;4181498;28;20445;-77
2024/02/25 03:50:13;;;;;;;1.97;1.20;;;2.90;99.90;;;;;;4188853;28;20267;-77
2024/02/25 03:52:15;;;;;;;2.67;1.20;;;2.90;99.90;;;;;;4183920;28;20453;-77
2024/02/25 03:54:16;;;;;;;3.20;1.00;;;2.90;99.90;;;;;;4192351;28;20221;-76
2024/02/25 03:56:18;;;;;;;2.43;1.30;;;2.90;99.90;;;;;;4186166;28;20429;-77
2024/02/25 03:58:19;;;;;;;2.57;1.10;;;2.90;99.90;;;;;;4192059;28;20204;-77
2024/02/25 04:00:23;;;;;;;1.50;1.00;;;2.90;99.90;;;;;;4181203;28;20480;-77
2024/02/25 04:02:24;;;;;;;2.07;1.17;;;2.80;99.90;;;;;;4191890;28;20878;-77
2024/02/25 04:04:25;;;;;;;1.67;1.13;;;2.90;99.90;;;;;;4190055;28;20472;-76
2024/02/25 04:06:26;;;;;;;1.73;0.90;;;2.80;99.90;;;;;;4193335;28;20256;-78
2024/02/25 04:08:31;;;;;;;1.93;1.10;;;2.80;99.90;;;;;;4183410;28;20457;-77
2024/02/25 04:10:33;;;;;;;1.83;1.10;;;2.80;99.90;;;;;;4188196;28;20828;-76
2024/02/25 04:12:35;;;;;;;1.63;1.10;;;2.80;99.90;;;;;;4178770;28;20468;-77
2024/02/25 04:14:37;;;;;;;2.47;1.07;;;2.80;99.90;;;;;;4180607;28;20999;-76
2024/02/25 04:16:40;;;;;;;1.87;0.97;;;2.70;99.90;;;;;;4182203;28;20457;-76
2024/02/25 04:18:42;;;;;;;1.67;1.00;;;2.80;99.90;;;;;;4190470;28;20493;-77
2024/02/25 04:20:44;;;;;;;0.80;0.70;;;2.80;99.90;;;;;;4196257;28;20866;-77
2024/02/25 04:22:45;;;;;;;1.57;1.00;;;2.80;99.90;;;;;;4187066;28;20479;-77
2024/02/25 04:24:47;;;;;;;1.93;1.10;;;2.80;99.90;;;;;;4189666;28;20486;-78
2024/02/25 04:26:49;;;;;;;1.10;0.90;;;2.80;99.90;;;;;;4194516;28;20230;-77
2024/02/25 04:28:52;;;;;;;3.50;1.43;;;2.80;99.90;;;;;;4188782;28;20445;-77
2024/02/25 04:30:54;;;;;;;2.30;0.97;;;2.80;99.90;;;;;;4188627;28;20448;-77
2024/02/25 04:32:56;;;;;;;1.00;0.90;;;2.90;99.90;;;;;;4195426;28;20448;-77
2024/02/25 04:35:01;;;;;;;1.43;0.90;;;2.90;99.90;;;;;;4182785;28;20472;-76
2024/02/25 04:37:03;;;;;;;1.80;1.00;;;2.80;99.90;;;;;;4184907;28;20544;-77
2024/02/25 04:39:05;;;;;;;1.50;0.80;;;2.90;99.90;;;;;;4188955;28;20543;-77
2024/02/25 04:41:07;;;;;;;4.13;1.03;;;2.90;99.90;;;;;;4185409;28;20891;-78
2024/02/25 04:43:09;;;;;;;1.53;0.70;;;2.90;99.90;;;;;;4190475;28;20487;-78
2024/02/25 04:45:11;;;;;;;1.60;0.80;;;2.80;99.90;;;;;;4188195;28;20482;-77
2024/02/25 04:47:13;;;;;;;1.10;0.90;;;2.80;99.90;;;;;;4185094;28;20549;-77
2024/02/25 04:49:16;;;;;;;1.60;0.97;;;2.80;99.90;;;;;;4197654;28;20447;-77
2024/02/25 04:51:19;;;;;;;1.57;1.00;;;2.80;99.90;;;;;;4183470;28;20455;-77
2024/02/25 04:53:20;;;;;;;1.30;0.83;;;2.80;99.90;;;;;;4190413;28;20452;-77
2024/02/25 04:55:22;;;;;;;1.33;0.70;;;2.90;99.90;;;;;;4187727;28;20536;-78
2024/02/25 04:57:23;;;;;;;1.43;0.90;;;2.80;99.90;;;;;;4190569;28;20830;-77
2024/02/25 04:59:25;;;;;;;3.90;1.30;;;2.70;99.90;;;;;;4185618;28;20502;-77
2024/02/25 05:01:27;;;;;;;3.30;0.97;;;2.70;99.90;;;;;;4188926;28;20517;-77
2024/02/25 05:03:29;;;;;;;2.63;0.83;;;2.70;99.90;;;;;;4180537;28;21358;-76
2024/02/25 05:05:32;;;;;;;1.27;0.90;;;2.70;99.90;;;;;;4188819;28;20484;-77
2024/02/25 05:07:34;;;;;;;1.30;1.00;;;2.60;99.90;;;;;;4184513;28;20481;-77
2024/02/25 05:09:36;;;;;;;1.53;1.00;;;2.60;99.90;;;;;;4186007;28;20869;-77
2024/02/25 05:11:38;;;;;;;1.67;0.90;;;2.60;99.90;;;;;;4183942;28;20444;-76
2024/02/25 05:13:42;;;;;;;1.10;0.90;;;2.60;99.90;;;;;;4181097;28;20484;-77
2024/02/25 05:15:44;;;;;;;1.60;1.00;;;2.50;99.90;;;;;;4190078;28;20536;-77
2024/02/25 05:17:45;;;;;;;3.20;1.03;;;2.50;99.90;;;;;;4185242;28;20487;-76
2024/02/25 05:19:47;;;;;;;1.27;0.90;;;2.50;99.90;;;;;;4186778;28;21215;-76
2024/02/25 05:21:51;;;;;;;1.43;0.97;;;2.50;99.90;;;;;;4185885;28;20237;-76
2024/02/25 05:23:57;;;;;;;1.53;1.03;;;2.40;99.90;;;;;;4185832;28;20905;-77
2024/02/25 05:25:58;;;;;;;1.47;1.07;;;2.50;99.90;;;;;;4186747;28;20849;-76
2024/02/25 05:28:00;;;;;;;2.50;0.90;;;2.50;99.90;;;;;;4184624;28;20502;-75
2024/02/25 05:30:03;;;;;;;1.97;0.90;;;2.50;99.90;;;;;;4184631;28;20868;-77
2024/02/25 05:32:06;;;;;;;2.77;1.20;;;2.40;99.90;;;;;;4190929;28;20489;-77
2024/02/25 05:34:07;;;;;;;1.20;1.07;;;2.40;99.90;;;;;;4186645;28;20570;-76
2024/02/25 05:36:10;;;;;;;2.13;1.20;;;2.40;99.90;;;;;;4186223;28;20441;-77
2024/02/25 05:38:13;;;;;;;1.63;1.10;;;2.30;99.90;;;;;;4188739;28;20525;-76
2024/02/25 05:40:15;;;;;;;3.73;1.40;;;2.30;99.90;;;;;;4188661;28;20501;-76
2024/02/25 05:42:18;;;;;;;3.80;1.10;;;2.30;99.90;;;;;;4187860;28;20456;-76
2024/02/25 05:44:20;;;;;;;2.33;1.30;;;2.30;99.90;;;;;;4187639;28;20468;-77
2024/02/25 05:46:22;;;;;;;2.20;1.07;;;2.30;99.90;;;;;;4191538;28;20541;-77
2024/02/25 05:48:24;;;;;;;2.93;1.37;;;2.30;99.90;;;;;;4188372;28;20489;-76
2024/02/25 05:50:26;;;;;;;1.47;1.10;;;2.30;99.90;;;;;;4189501;28;20860;-77
2024/02/25 05:52:30;;;;;;;1.97;1.10;;;2.30;99.90;;;;;;4189703;28;20448;-77
2024/02/25 05:54:35;;;;;;;2.57;1.20;;;2.40;99.90;;;;;;4193695;28;20470;-77
2024/02/25 05:56:37;;;;;;;2.80;1.20;;;2.30;99.90;;;;;;4186666;28;20987;-78
2024/02/25 05:58:39;;;;;;;2.77;1.20;;;2.30;99.90;;;;;;4191730;28;20827;-77
2024/02/25 06:00:47;;;;;;;2.00;1.27;;;2.30;99.90;;;;;;4182847;28;20448;-77
2024/02/25 06:02:49;;;;;;;4.87;1.20;;;2.30;99.90;;;;;;4193424;28;20486;-76
2024/02/25 06:04:51;;;;;;;1.70;1.17;;;2.30;99.90;;;;;;4182339;28;20484;-78
2024/02/25 06:06:53;;;;;;;2.30;1.27;;;2.20;99.90;;;;;;4189433;28;20535;-78
2024/02/25 06:08:55;;;;;;;3.57;1.70;;;2.20;99.90;;;;;;4185635;28;20486;-78
2024/02/25 06:11:01;;;;;;;4.17;1.70;;;2.20;99.90;;;;;;4185954;28;20494;-77
2024/02/25 06:13:03;;;;;;;4.07;1.70;;;2.50;99.90;;;;;;4180259;28;21003;-77
2024/02/25 06:15:07;;;;;;;3.03;1.70;;;2.20;99.90;;;;;;4190926;28;20472;-77
2024/02/25 06:17:08;;;;;;;2.03;1.27;;;2.10;99.90;;;;;;4183869;28;20911;-77
2024/02/25 06:19:11;;;;;;;2.53;1.40;;;2.10;99.90;;;;;;4185216;28;20499;-77
2024/02/25 06:21:11;;;;;;;2.07;1.23;;;2.30;99.90;;;;;;4186226;28;20531;-77
2024/02/25 06:23:13;;;;;;;3.77;1.60;;;2.10;99.90;;;;;;4187293;28;21054;-75
2024/02/25 06:25:16;;;;;;;1.47;1.07;;;2.10;99.90;;;;;;4187280;28;20214;-75
2024/02/25 06:27:19;;;;;;;2.53;1.40;;;2.00;99.90;;;;;;4188587;28;20885;-75
2024/02/25 06:29:24;;;;;;;3.33;1.43;;;2.00;99.90;;;;;;4192061;28;20906;-75
2024/02/25 06:31:26;;;;;;;4.50;1.20;;;2.00;99.90;;;;;;4185638;28;21188;-75
2024/02/25 06:33:28;;;;;;;3.00;1.53;;;2.10;99.90;;;;;;4188662;28;20457;-75
2024/02/25 06:35:29;;;;;;;1.80;1.30;;;2.00;99.90;;;;;;4183246;28;20449;-76
2024/02/25 06:37:32;;;;;;;3.50;1.50;;;2.00;99.90;;;;;;4186773;28;20455;-76
2024/02/25 06:39:33;;;;;;;2.10;1.37;;;2.00;99.90;;;;;;4184253;28;20210;-75
2024/02/25 06:41:35;;;;;;;1.93;1.33;;;2.00;99.90;;;;;;4183473;28;20449;-77
2024/02/25 06:43:37;;;;;;;2.63;1.50;;;2.00;99.90;;;;;;4192227;28;20328;-75
2024/02/25 06:45:41;;;;;;;2.43;1.40;;;1.90;99.90;;;;;;4186385;28;20476;-75
2024/02/25 06:47:43;;;;;;;3.10;1.70;;;2.00;99.90;;;;;;4185755;28;20467;-74
2024/02/25 06:49:45;;;;;;;2.93;1.70;;;1.90;99.90;;;;;;4186588;28;20445;-75
2024/02/25 06:51:47;;;;;;;3.00;1.40;;;1.90;99.90;;;;;;4188272;28;20463;-76
2024/02/25 06:53:48;;;;;;;2.10;1.40;;;1.90;99.90;;;;;;4185468;28;20459;-75
2024/02/25 06:55:50;;;;;;;2.00;1.40;;;1.90;99.90;;;;;;4188988;28;20449;-75
2024/02/25 06:57:52;;;;;;;3.07;1.67;;;2.00;99.90;;;;;;4187944;28;20484;-77
2024/02/25 06:59:57;;;;;;;2.73;1.97;;;2.00;99.90;;;;;;4186056;28;20480;-75
2024/02/25 07:01:59;;;;;;;4.17;2.03;;;1.90;99.90;;;;;;4187264;28;20544;-75
2024/02/25 07:04:01;;;;;;;2.93;1.83;;;1.90;99.90;;;;;;4190062;28;20573;-76
2024/02/25 07:06:02;;;;;;;3.17;1.93;;;2.00;99.90;;;;;;4190787;28;20523;-75
2024/02/25 07:08:05;;;;;;;4.67;2.40;;;2.00;99.90;;;;;;4183463;28;20461;-75
2024/02/25 07:10:07;;;;;;;3.20;2.07;;;2.10;99.90;;;;;;4184204;28;21315;-75
2024/02/25 07:12:09;;;;;;;3.60;2.07;;;2.10;99.90;;;;;;4183800;28;20452;-75
2024/02/25 07:14:11;;;;;;;3.87;2.13;;;2.10;99.90;;;;;;4185943;28;20476;-75
2024/02/25 07:16:15;;;;;;;3.17;2.30;;;2.20;99.90;;;;;;4178170;28;20492;-76
2024/02/25 07:18:17;;;;;;;4.90;2.37;;;2.20;99.90;;;;;;4177794;28;20452;-76
2024/02/25 07:20:21;;;;;;;3.73;2.43;;;2.30;99.90;;;;;;4192654;28;20470;-77
2024/02/25 07:22:23;;;;;;;3.50;2.10;;;2.30;99.90;;;;;;4177791;28;20449;-75
2024/02/25 07:24:25;;;;;;;2.97;1.90;;;2.30;99.90;;;;;;4186619;28;20468;-75
2024/02/25 07:26:27;;;;;;;3.30;2.00;;;2.40;99.90;;;;;;4185884;28;20520;-75
2024/02/25 07:28:29;;;;;;;3.67;1.93;;;2.40;99.90;;;;;;4184016;28;20452;-75
2024/02/25 07:30:33;;;;;;;4.67;2.17;;;2.40;99.90;;;;;;4187792;28;20483;-75
2024/02/25 07:32:36;;;;;;;4.00;2.00;;;2.40;99.90;;;;;;4189465;28;20514;-75
2024/02/25 07:34:38;;;;;;;3.93;2.40;;;2.40;99.90;;;;;;4186885;28;20469;-75
2024/02/25 07:36:40;;;;;;;3.43;2.20;;;2.40;99.90;;;;;;4190785;28;20452;-75
2024/02/25 07:38:43;;;;;;;2.97;1.90;;;2.40;99.90;;;;;;4185585;28;20547;-75
2024/02/25 07:40:44;;;;;;;3.17;1.97;;;2.50;99.90;;;;;;4189954;28;20557;-76
2024/02/25 07:42:48;;;;;;;2.57;1.73;;;2.50;99.90;;;;;;4186021;28;20449;-76
2024/02/25 07:44:54;;;;;;;3.27;2.03;;;2.50;99.90;;;;;;4186890;28;20916;-75
2024/02/25 07:46:57;;;;;;;5.20;2.40;;;2.50;99.90;;;;;;4181484;28;20491;-75
2024/02/25 07:49:03;;;;;;;3.37;2.17;;;2.60;99.90;;;;;;4191040;28;20551;-77
2024/02/25 07:51:06;;;;;;;5.77;2.27;;;2.60;99.90;;;;;;4187022;28;20448;-74
2024/02/25 07:53:08;;;;;;;4.63;2.50;;;2.70;99.90;;;;;;4184597;28;21201;-76
2024/02/25 07:55:12;;;;;;;3.70;2.03;;;2.70;99.90;;;;;;4184931;28;20841;-76
2024/02/25 07:57:14;;;;;;;5.00;2.63;;;2.80;99.90;;;;;;4183644;28;20998;-76
2024/02/25 07:59:16;;;;;;;4.23;1.97;;;2.90;99.90;;;;;;4186263;28;20449;-76
2024/02/25 08:01:18;;;;;;;3.90;2.40;;;2.90;99.90;;;;;;4185880;28;21236;-76
2024/02/25 08:03:20;;;;;;;5.57;2.67;;;2.90;99.90;;;;;;4185609;28;20497;-74
2024/02/25 08:05:23;;;;;;;4.20;2.47;;;3.00;99.90;;;;;;4187288;28;20468;-72
2024/02/25 08:07:25;;;;;;;5.03;2.00;;;3.00;99.90;;;;;;4182208;28;20832;-74
2024/02/25 08:09:27;;;;;;;4.27;2.20;;;3.10;99.90;;;;;;4186519;28;20476;-74
2024/02/25 08:11:29;;;;;;;5.20;2.30;;;3.20;99.90;;;;;;4187485;28;20506;-78
2024/02/25 08:13:32;;;;;;;5.50;2.60;;;3.20;99.90;;;;;;4182601;28;20452;-83
2024/02/25 08:15:33;;;;;;;3.57;2.03;;;3.20;99.90;;;;;;4184696;28;20567;-75
2024/02/25 08:17:36;;;;;;;3.27;2.10;;;3.20;99.90;;;;;;4189520;28;20484;-76
2024/02/25 08:19:38;;;;;;;4.13;2.13;;;3.30;99.90;;;;;;4185442;28;20556;-77
2024/02/25 08:21:42;;;;;;;3.53;2.13;;;3.50;99.90;;;;;;4188375;28;20483;-76
2024/02/25 08:23:43;;;;;;;3.10;2.00;;;3.60;99.90;;;;;;4190729;28;20480;-76
2024/02/25 08:25:45;;;;;;;2.83;1.67;;;3.70;99.90;;;;;;4189548;28;20543;-79
2024/02/25 08:27:47;;;;;;;3.63;1.93;;;3.70;99.90;;;;;;4192822;28;20446;-77
2024/02/25 08:29:48;;;;;;;4.27;2.07;;;3.70;99.90;;;;;;4187994;28;20454;-77
2024/02/25 08:31:50;;;;;;;3.27;1.80;;;3.80;99.90;;;;;;4186688;28;20474;-75
2024/02/25 08:33:52;;;;;;;2.50;1.80;;;3.90;99.90;;;;;;4189536;28;20987;-77
2024/02/25 08:35:53;;;;;;;3.40;2.00;;;4.00;99.90;;;;;;4181999;28;20463;-80
2024/02/25 08:37:57;;;;;;;3.57;1.83;;;4.10;99.90;;;;;;4184975;28;20446;-75
2024/02/25 08:39:59;;;;;;;3.67;2.20;;;4.20;99.90;;;;;;4181902;28;20473;-74
2024/02/25 08:42:01;;;;;;;3.40;1.83;;;4.30;99.90;;;;;;4183066;28;20462;-73
2024/02/25 08:44:03;;;;;;;2.80;1.83;;;4.40;99.90;;;;;;4183572;28;21029;-74
2024/02/25 08:46:05;;;;;;;4.73;2.20;;;4.50;99.90;;;;;;4185530;28;20479;-76
2024/02/25 08:48:08;;;;;;;3.27;2.30;;;4.50;99.90;;;;;;4184499;28;20452;-76
2024/02/25 08:50:12;;;;;;;5.53;2.30;;;4.60;99.90;;;;;;4185092;28;20518;-77
2024/02/25 08:52:14;;;;;;;4.03;2.30;;;4.60;99.90;;;;;;4193377;28;20485;-79
2024/02/25 08:54:17;;;;;;;3.73;2.33;;;4.70;99.90;;;;;;4189106;28;20846;-74
2024/02/25 08:56:19;;;;;;;3.57;1.93;;;4.80;99.90;;;;;;4184541;28;20443;-74
2024/02/25 08:58:21;;;;;;;5.53;1.90;;;4.90;99.90;;;;;;4188765;28;20505;-75
2024/02/25 09:00:23;;;;;;;4.40;2.60;;;4.90;99.90;;;;;;4182473;28;20478;-74
2024/02/25 09:02:27;;;;;;;4.80;2.80;;;5.00;99.90;;;;;;4185087;28;20464;-74
2024/02/25 09:04:29;;;;;;;3.33;2.00;;;5.10;99.90;;;;;;4182587;28;20483;-76
2024/02/25 09:06:30;;;;;;;4.43;2.07;;;5.20;99.90;;;;;;4183393;28;20540;-75
2024/02/25 09:08:32;;;;;;;5.27;2.50;;;5.20;99.90;;;;;;4182270;28;20500;-76
2024/02/25 09:10:36;;;;;;;3.17;1.80;;;5.30;99.90;;;;;;4185776;28;20239;-75
2024/02/25 09:12:38;;;;;;;4.07;2.13;;;5.50;99.90;;;;;;4184700;28;20462;-74
2024/02/25 09:14:40;;;;;;;3.80;2.20;;;5.50;99.90;;;;;;4190885;28;20570;-75
2024/02/25 09:16:42;;;;;;;4.27;2.30;;;5.60;99.90;;;;;;4188138;28;20455;-76
2024/02/25 09:18:43;;;;;;;3.43;2.17;;;5.70;99.90;;;;;;4187777;28;20478;-75
2024/02/25 09:20:45;;;;;;;2.67;1.90;;;5.70;99.90;;;;;;4191080;28;20558;-77
2024/02/25 09:22:47;;;;;;;5.60;2.27;;;5.80;99.90;;;;;;4183924;28;20452;-75
2024/02/25 09:24:49;;;;;;;4.07;2.37;;;5.90;99.90;;;;;;4186082;28;20526;-77
2024/02/25 09:26:53;;;;;;;3.80;2.20;;;6.00;99.90;;;;;;4186407;28;21018;-75
2024/02/25 09:28:55;;;;;;;6.37;2.90;;;6.10;99.90;;;;;;4187924;28;20479;-73
2024/02/25 09:30:57;;;;;;;5.07;2.37;;;6.20;99.90;;;;;;4185221;28;20973;-75
2024/02/25 09:33:02;;;;;;;5.00;2.40;;;6.20;99.90;;;;;;4189404;28;20498;-74
2024/02/25 09:35:05;;;;;;;5.00;2.27;;;6.30;99.90;;;;;;4184392;28;22166;-73
2024/02/25 09:37:07;;;;;;;4.27;2.30;;;6.40;99.90;;;;;;4187331;28;20888;-73
2024/02/25 09:39:08;;;;;;;3.63;2.30;;;6.40;99.90;;;;;;4183112;28;20532;-75
2024/02/25 09:41:13;;;;;;;3.50;2.20;;;6.50;99.90;;;;;;4186237;28;20197;-73
2024/02/25 09:43:16;;;;;;;3.70;2.60;;;6.50;99.90;;;;;;4190017;28;20198;-72
2024/02/25 09:45:22;;;;;;;2.80;2.10;;;6.70;99.90;;;;;;4183482;28;20831;-73
2024/02/25 09:47:25;;;;;;;4.67;2.50;;;6.80;99.90;;;;;;4185753;28;20472;-73
2024/02/25 09:49:28;;;;;;;4.27;2.67;;;6.80;99.90;;;;;;4183009;28;20485;-73
2024/02/25 09:51:32;;;;;;;5.93;2.67;;;7.00;99.90;;;;;;4185097;28;20197;-76
2024/02/25 09:53:36;;;;;;;4.23;2.37;;;7.10;99.90;;;;;;4185263;28;20198;-77
2024/02/25 09:55:38;;;;;;;4.60;2.47;;;7.20;99.90;;;;;;4192465;28;20203;-74
2024/02/25 09:57:40;;;;;;;4.67;2.30;;;7.30;99.90;;;;;;4182731;28;20202;-75
2024/02/25 09:59:44;;;;;;;4.27;2.13;;;7.40;99.90;;;;;;4183739;28;20211;-74
2024/02/25 10:01:47;;;;;;;5.80;2.07;;;7.50;99.90;;;;;;4188472;28;20242;-74
2024/02/25 10:03:49;;;;;;;3.63;1.97;;;7.70;99.90;;;;;;4188112;28;20229;-75
2024/02/25 10:05:53;;;;;;;4.20;2.10;;;7.70;99.90;;;;;;4189399;28;20209;-76
2024/02/25 10:08:03;;;;;;;5.37;2.30;;;7.70;99.90;;;;;;4187030;28;20208;-76
2024/02/25 10:10:06;;;;;;;3.53;2.30;;;7.80;99.90;;;;;;4187148;28;20248;-74
2024/02/25 10:12:10;;;;;;;5.00;2.20;;;7.90;99.90;;;;;;4196997;28;20207;-72
2024/02/25 10:14:12;;;;;;;6.47;2.40;;;8.00;99.90;;;;;;4185686;28;20232;-74
2024/02/25 10:16:18;;;;;;;4.40;2.53;;;8.20;99.90;;;;;;4185991;28;21048;-74
2024/02/25 10:18:23;;;;;;;6.20;3.57;;;8.20;99.90;;;;;;4188139;28;20635;-74
2024/02/25 10:20:24;;;;;;;8.17;2.70;;;8.30;99.90;;;;;;4189459;28;20219;-73
2024/02/25 10:22:29;;;;;;;6.63;2.43;;;8.40;99.90;;;;;;4186955;28;20205;-75
2024/02/25 10:24:31;;;;;;;4.57;2.47;;;8.50;99.90;;;;;;4186183;28;20279;-75
2024/02/25 10:26:33;;;;;;;6.60;3.10;;;8.60;99.90;;;;;;4185421;28;20221;-75
2024/02/25 10:28:35;;;;;;;10.47;3.27;;;8.70;99.90;;;;;;4184481;28;20723;-75
2024/02/25 10:30:36;;;;;;;5.47;2.77;;;8.70;99.90;;;;;;4191780;28;20202;-73
2024/02/25 10:32:40;;;;;;;7.43;3.10;;;8.80;99.90;;;;;;4187998;28;20235;-82
2024/02/25 10:34:42;;;;;;;5.13;3.13;;;8.90;99.90;;;;;;4184894;28;20255;-71
2024/02/25 10:36:44;;;;;;;5.20;2.80;;;8.90;99.90;;;;;;4193368;28;20197;-72
2024/02/25 10:38:47;;;;;;;3.93;2.30;;;9.00;99.90;;;;;;4183490;28;20209;-73
2024/02/25 10:40:49;;;;;;;5.33;2.70;;;9.10;99.90;;;;;;4183556;28;20253;-71
2024/02/25 10:42:52;;;;;;;4.67;3.07;;;9.20;99.90;;;;;;4191855;28;20204;-73
2024/02/25 10:44:55;;;;;;;4.13;2.77;;;9.30;99.90;;;;;;4185277;28;20470;-74
2024/02/25 10:47:03;;;;;;;4.30;2.60;;;9.40;99.90;;;;;;4181636;28;20229;-73